sensor_id;sensor_type;location;lat;lon;timestamp;pressure;altitude;pressure_sealevel;temperature;humidity
41515;BME280;27247;48.020;16.720;2023-03-13T00:00:48;99832.28;;;6.63;79.38
41515;BME280;27247;48.020;16.720;2023-03-13T00:04:59;99843.84;;;6.71;79.49
41515;BME280;27247;48.020;16.720;2023-03-13T00:09:11;99845.13;;;6.67;77.30
41515;BME280;27247;48.020;16.720;2023-03-13T00:13:22;99840.78;;;6.66;75.87
41515;BME280;27247;48.020;16.720;2023-03-13T00:17:33;99835.47;;;6.66;75.72
41515;BME280;27247;48.020;16.720;2023-03-13T00:21:43;99830.63;;;6.62;75.55
41515;BME280;27247;48.020;16.720;2023-03-13T00:26:14;99818.50;;;6.59;76.23
41515;BME280;27247;48.020;16.720;2023-03-13T00:30:25;99801.56;;;6.60;77.07
41515;BME280;27247;48.020;16.720;2023-03-13T00:34:35;99794.75;;;6.58;78.16
41515;BME280;27247;48.020;16.720;2023-03-13T00:38:46;99787.47;;;6.42;79.24
41515;BME280;27247;48.020;16.720;2023-03-13T00:42:56;99788.50;;;6.31;77.78
41515;BME280;27247;48.020;16.720;2023-03-13T00:47:07;99785.25;;;6.37;78.33
41515;BME280;27247;48.020;16.720;2023-03-13T00:51:19;99784.81;;;6.60;78.56
41515;BME280;27247;48.020;16.720;2023-03-13T00:55:29;99773.34;;;6.59;78.28
41515;BME280;27247;48.020;16.720;2023-03-13T00:59:40;99770.78;;;6.50;78.89
41515;BME280;27247;48.020;16.720;2023-03-13T01:03:55;99770.00;;;6.39;78.50
41515;BME280;27247;48.020;16.720;2023-03-13T01:08:06;99754.91;;;6.40;76.82
41515;BME280;27247;48.020;16.720;2023-03-13T01:12:16;99754.38;;;6.36;74.88
41515;BME280;27247;48.020;16.720;2023-03-13T01:16:29;99747.41;;;6.35;75.32
41515;BME280;27247;48.020;16.720;2023-03-13T01:20:40;99753.03;;;6.32;74.53
41515;BME280;27247;48.020;16.720;2023-03-13T01:24:50;99747.41;;;6.35;74.06
41515;BME280;27247;48.020;16.720;2023-03-13T01:29:01;99737.09;;;6.32;75.31
41515;BME280;27247;48.020;16.720;2023-03-13T01:33:12;99731.97;;;6.21;75.49
41515;BME280;27247;48.020;16.720;2023-03-13T01:37:22;99733.41;;;6.16;75.14
41515;BME280;27247;48.020;16.720;2023-03-13T01:41:32;99724.53;;;6.07;74.98
41515;BME280;27247;48.020;16.720;2023-03-13T01:45:53;99738.94;;;6.04;75.03
41515;BME280;27247;48.020;16.720;2023-03-13T01:50:05;99729.31;;;6.03;74.70
41515;BME280;27247;48.020;16.720;2023-03-13T01:54:24;99721.13;;;6.15;74.37
41515;BME280;27247;48.020;16.720;2023-03-13T01:58:38;99733.56;;;6.14;74.30
41515;BME280;27247;48.020;16.720;2023-03-13T02:02:51;99735.91;;;5.99;74.69
41515;BME280;27247;48.020;16.720;2023-03-13T02:07:05;99735.34;;;5.96;73.73
41515;BME280;27247;48.020;16.720;2023-03-13T02:15:40;99734.31;;;5.79;73.45
41515;BME280;27247;48.020;16.720;2023-03-13T02:19:51;99720.56;;;5.66;72.04
41515;BME280;27247;48.020;16.720;2023-03-13T02:24:11;99713.44;;;5.66;71.80
41515;BME280;27247;48.020;16.720;2023-03-13T02:28:29;99718.88;;;5.65;72.38
41515;BME280;27247;48.020;16.720;2023-03-13T02:32:43;99722.28;;;5.57;72.25
41515;BME280;27247;48.020;16.720;2023-03-13T02:36:55;99723.25;;;5.56;72.41
41515;BME280;27247;48.020;16.720;2023-03-13T02:41:07;99717.69;;;5.50;74.32
41515;BME280;27247;48.020;16.720;2023-03-13T02:45:17;99712.03;;;5.35;75.81
41515;BME280;27247;48.020;16.720;2023-03-13T02:49:29;99708.63;;;5.05;77.44
41515;BME280;27247;48.020;16.720;2023-03-13T02:53:40;99717.66;;;5.12;76.50
41515;BME280;27247;48.020;16.720;2023-03-13T02:57:51;99722.28;;;5.20;75.40
41515;BME280;27247;48.020;16.720;2023-03-13T03:02:02;99737.81;;;5.42;75.21
41515;BME280;27247;48.020;16.720;2023-03-13T03:06:13;99734.19;;;5.43;75.00
41515;BME280;27247;48.020;16.720;2023-03-13T03:10:24;99751.38;;;5.30;76.76
41515;BME280;27247;48.020;16.720;2023-03-13T03:14:34;99760.03;;;5.32;77.58
41515;BME280;27247;48.020;16.720;2023-03-13T03:18:45;99757.38;;;5.12;78.69
41515;BME280;27247;48.020;16.720;2023-03-13T03:22:55;99750.72;;;5.08;78.09
41515;BME280;27247;48.020;16.720;2023-03-13T03:27:06;99747.38;;;5.06;78.14
41515;BME280;27247;48.020;16.720;2023-03-13T03:31:16;99743.88;;;5.06;77.65
41515;BME280;27247;48.020;16.720;2023-03-13T03:35:27;99737.88;;;5.13;77.64
41515;BME280;27247;48.020;16.720;2023-03-13T03:39:37;99743.72;;;5.17;76.99
41515;BME280;27247;48.020;16.720;2023-03-13T03:43:48;99753.78;;;5.13;77.06
41515;BME280;27247;48.020;16.720;2023-03-13T03:47:58;99749.31;;;5.04;77.95
41515;BME280;27247;48.020;16.720;2023-03-13T03:52:09;99737.78;;;4.86;78.19
41515;BME280;27247;48.020;16.720;2023-03-13T03:56:19;99740.19;;;4.70;78.05
41515;BME280;27247;48.020;16.720;2023-03-13T04:00:30;99748.53;;;4.65;77.92
41515;BME280;27247;48.020;16.720;2023-03-13T04:04:41;99742.69;;;4.81;76.81
41515;BME280;27247;48.020;16.720;2023-03-13T04:08:51;99741.84;;;4.71;76.90
41515;BME280;27247;48.020;16.720;2023-03-13T04:13:01;99736.13;;;4.85;76.33
41515;BME280;27247;48.020;16.720;2023-03-13T04:17:12;99736.28;;;4.74;76.97
41515;BME280;27247;48.020;16.720;2023-03-13T04:21:23;99732.38;;;4.49;77.33
41515;BME280;27247;48.020;16.720;2023-03-13T04:25:33;99751.03;;;4.19;78.42
41515;BME280;27247;48.020;16.720;2023-03-13T04:29:43;99733.63;;;4.26;77.90
41515;BME280;27247;48.020;16.720;2023-03-13T04:33:54;99736.25;;;4.16;78.37
41515;BME280;27247;48.020;16.720;2023-03-13T04:38:04;99748.06;;;4.12;78.37
41515;BME280;27247;48.020;16.720;2023-03-13T04:42:14;99723.81;;;3.97;79.42
41515;BME280;27247;48.020;16.720;2023-03-13T04:46:25;99716.81;;;3.77;81.13
41515;BME280;27247;48.020;16.720;2023-03-13T04:50:35;99717.66;;;3.77;82.23
41515;BME280;27247;48.020;16.720;2023-03-13T04:54:46;99715.59;;;3.81;82.10
41515;BME280;27247;48.020;16.720;2023-03-13T04:58:56;99705.59;;;3.94;81.15
41515;BME280;27247;48.020;16.720;2023-03-13T05:03:06;99704.22;;;4.09;80.73
41515;BME280;27247;48.020;16.720;2023-03-13T05:07:17;99713.72;;;4.22;81.19
41515;BME280;27247;48.020;16.720;2023-03-13T05:11:27;99709.84;;;4.26;80.33
41515;BME280;27247;48.020;16.720;2023-03-13T05:15:37;99709.84;;;4.45;79.68
41515;BME280;27247;48.020;16.720;2023-03-13T05:19:48;99701.91;;;4.45;80.19
41515;BME280;27247;48.020;16.720;2023-03-13T05:23:58;99704.25;;;4.48;81.17
41515;BME280;27247;48.020;16.720;2023-03-13T05:28:08;99694.66;;;4.47;81.60
41515;BME280;27247;48.020;16.720;2023-03-13T05:32:19;99698.00;;;4.59;81.57
41515;BME280;27247;48.020;16.720;2023-03-13T05:36:29;99697.84;;;4.70;81.32
41515;BME280;27247;48.020;16.720;2023-03-13T05:40:39;99709.78;;;4.84;81.06
41515;BME280;27247;48.020;16.720;2023-03-13T05:44:50;99707.84;;;4.86;80.56
41515;BME280;27247;48.020;16.720;2023-03-13T05:49:00;99716.63;;;4.86;80.16
41515;BME280;27247;48.020;16.720;2023-03-13T05:53:10;99711.47;;;4.85;79.34
41515;BME280;27247;48.020;16.720;2023-03-13T05:57:21;99725.41;;;4.77;79.88
41515;BME280;27247;48.020;16.720;2023-03-13T06:01:31;99716.50;;;4.68;80.86
41515;BME280;27247;48.020;16.720;2023-03-13T06:05:42;99709.09;;;4.81;80.34
41515;BME280;27247;48.020;16.720;2023-03-13T06:09:52;99705.63;;;4.81;79.67
41515;BME280;27247;48.020;16.720;2023-03-13T06:14:02;99699.31;;;4.92;80.33
41515;BME280;27247;48.020;16.720;2023-03-13T06:18:13;99699.69;;;5.06;79.57
41515;BME280;27247;48.020;16.720;2023-03-13T06:22:23;99691.59;;;5.18;79.16
41515;BME280;27247;48.020;16.720;2023-03-13T06:26:33;99687.22;;;5.36;77.50
41515;BME280;27247;48.020;16.720;2023-03-13T06:30:44;99675.19;;;5.41;77.58
41515;BME280;27247;48.020;16.720;2023-03-13T06:34:54;99688.16;;;5.44;76.56
41515;BME280;27247;48.020;16.720;2023-03-13T06:39:05;99679.47;;;5.52;75.55
41515;BME280;27247;48.020;16.720;2023-03-13T06:43:15;99680.56;;;5.59;76.05
41515;BME280;27247;48.020;16.720;2023-03-13T06:47:25;99686.63;;;5.69;74.47
41515;BME280;27247;48.020;16.720;2023-03-13T06:51:36;99686.03;;;5.75;74.14
41515;BME280;27247;48.020;16.720;2023-03-13T06:55:47;99691.78;;;5.71;73.41
41515;BME280;27247;48.020;16.720;2023-03-13T06:59:58;99669.53;;;5.82;71.37
41515;BME280;27247;48.020;16.720;2023-03-13T07:04:12;99670.94;;;5.58;71.83
41515;BME280;27247;48.020;16.720;2023-03-13T07:08:23;99667.66;;;5.47;70.93
41515;BME280;27247;48.020;16.720;2023-03-13T07:12:35;99664.56;;;5.51;71.22
41515;BME280;27247;48.020;16.720;2023-03-13T07:16:46;99641.19;;;5.64;70.72
41515;BME280;27247;48.020;16.720;2023-03-13T07:20:58;99659.59;;;5.93;70.00
41515;BME280;27247;48.020;16.720;2023-03-13T07:25:09;99652.16;;;5.97;69.29
41515;BME280;27247;48.020;16.720;2023-03-13T07:29:19;99651.34;;;6.32;68.91
41515;BME280;27247;48.020;16.720;2023-03-13T07:33:30;99642.19;;;6.70;67.56
41515;BME280;27247;48.020;16.720;2023-03-13T07:37:40;99639.22;;;6.99;66.73
41515;BME280;27247;48.020;16.720;2023-03-13T07:41:51;99633.50;;;7.20;66.24
41515;BME280;27247;48.020;16.720;2023-03-13T07:46:03;99620.69;;;7.49;65.61
41515;BME280;27247;48.020;16.720;2023-03-13T07:50:14;99620.13;;;7.29;65.00
41515;BME280;27247;48.020;16.720;2023-03-13T07:54:24;99620.50;;;7.09;64.98
41515;BME280;27247;48.020;16.720;2023-03-13T07:58:36;99603.91;;;7.15;66.63
41515;BME280;27247;48.020;16.720;2023-03-13T08:02:47;99604.88;;;7.40;66.00
41515;BME280;27247;48.020;16.720;2023-03-13T08:06:57;99608.13;;;7.67;64.61
41515;BME280;27247;48.020;16.720;2023-03-13T08:11:11;99594.63;;;7.61;63.66
41515;BME280;27247;48.020;16.720;2023-03-13T08:15:22;99601.47;;;7.63;64.35
41515;BME280;27247;48.020;16.720;2023-03-13T08:19:35;99604.75;;;7.49;64.15
41515;BME280;27247;48.020;16.720;2023-03-13T08:23:46;99611.44;;;7.69;63.83
41515;BME280;27247;48.020;16.720;2023-03-13T08:27:56;99604.84;;;7.90;63.97
41515;BME280;27247;48.020;16.720;2023-03-13T08:32:06;99576.41;;;8.15;63.19
41515;BME280;27247;48.020;16.720;2023-03-13T08:36:28;99581.44;;;8.42;63.46
41515;BME280;27247;48.020;16.720;2023-03-13T08:40:38;99574.28;;;8.43;61.57
41515;BME280;27247;48.020;16.720;2023-03-13T08:44:49;99593.56;;;8.69;61.87
41515;BME280;27247;48.020;16.720;2023-03-13T08:48:59;99562.03;;;8.89;61.92
41515;BME280;27247;48.020;16.720;2023-03-13T08:53:10;99573.03;;;8.86;61.35
41515;BME280;27247;48.020;16.720;2023-03-13T08:57:21;99570.84;;;8.89;62.20
41515;BME280;27247;48.020;16.720;2023-03-13T09:01:34;99557.13;;;9.09;62.33
41515;BME280;27247;48.020;16.720;2023-03-13T09:05:44;99562.75;;;9.22;61.30
41515;BME280;27247;48.020;16.720;2023-03-13T09:09:56;99559.25;;;9.21;62.17
41515;BME280;27247;48.020;16.720;2023-03-13T09:14:07;99541.53;;;9.28;62.13
41515;BME280;27247;48.020;16.720;2023-03-13T09:18:17;99535.34;;;9.36;61.12
41515;BME280;27247;48.020;16.720;2023-03-13T09:22:28;99524.53;;;9.38;59.92
41515;BME280;27247;48.020;16.720;2023-03-13T09:26:39;99522.09;;;9.51;60.52
41515;BME280;27247;48.020;16.720;2023-03-13T09:30:49;99510.84;;;9.64;60.35
41515;BME280;27247;48.020;16.720;2023-03-13T09:35:00;99514.69;;;9.84;60.28
41515;BME280;27247;48.020;16.720;2023-03-13T09:39:10;99510.25;;;9.99;59.70
41515;BME280;27247;48.020;16.720;2023-03-13T09:47:56;99526.66;;;10.11;58.99
41515;BME280;27247;48.020;16.720;2023-03-13T09:52:24;99513.78;;;10.14;58.06
41515;BME280;27247;48.020;16.720;2023-03-13T09:56:45;99494.41;;;10.35;58.94
41515;BME280;27247;48.020;16.720;2023-03-13T10:01:03;99498.31;;;10.47;58.07
41515;BME280;27247;48.020;16.720;2023-03-13T10:05:27;99498.97;;;10.49;57.92
41515;BME280;27247;48.020;16.720;2023-03-13T10:09:38;99492.44;;;10.52;57.48
41515;BME280;27247;48.020;16.720;2023-03-13T10:18:20;99500.63;;;10.95;58.01
41515;BME280;27247;48.020;16.720;2023-03-13T10:22:31;99499.03;;;11.00;56.72
41515;BME280;27247;48.020;16.720;2023-03-13T10:26:41;99496.44;;;11.07;57.05
41515;BME280;27247;48.020;16.720;2023-03-13T10:30:58;99500.47;;;11.17;56.64
41515;BME280;27247;48.020;16.720;2023-03-13T10:35:19;99464.97;;;11.24;56.51
41515;BME280;27247;48.020;16.720;2023-03-13T10:39:30;99458.72;;;11.16;56.74
41515;BME280;27247;48.020;16.720;2023-03-13T10:43:49;99475.94;;;11.29;56.83
41515;BME280;27247;48.020;16.720;2023-03-13T10:48:03;99442.13;;;11.42;57.32
41515;BME280;27247;48.020;16.720;2023-03-13T10:52:34;99432.91;;;11.45;56.71
41515;BME280;27247;48.020;16.720;2023-03-13T10:56:44;99397.72;;;11.69;57.46
41515;BME280;27247;48.020;16.720;2023-03-13T11:01:13;99413.53;;;11.64;55.54
41515;BME280;27247;48.020;16.720;2023-03-13T11:09:56;99429.59;;;11.86;55.66
41515;BME280;27247;48.020;16.720;2023-03-13T11:14:18;99421.66;;;11.99;56.25
41515;BME280;27247;48.020;16.720;2023-03-13T11:18:40;99426.88;;;12.07;55.34
41515;BME280;27247;48.020;16.720;2023-03-13T11:31:37;99431.88;;;11.67;55.53
41515;BME280;27247;48.020;16.720;2023-03-13T11:35:55;99421.13;;;11.61;56.04
41515;BME280;27247;48.020;16.720;2023-03-13T11:40:19;99431.19;;;11.59;55.89
41515;BME280;27247;48.020;16.720;2023-03-13T11:44:42;99415.06;;;11.52;55.87
41515;BME280;27247;48.020;16.720;2023-03-13T11:49:13;99417.28;;;11.48;55.86
41515;BME280;27247;48.020;16.720;2023-03-13T12:02:35;99404.66;;;11.85;55.07
41515;BME280;27247;48.020;16.720;2023-03-13T12:07:06;99397.94;;;11.96;55.20
41515;BME280;27247;48.020;16.720;2023-03-13T12:11:28;99394.50;;;12.02;54.91
41515;BME280;27247;48.020;16.720;2023-03-13T12:15:46;99391.31;;;12.20;55.36
41515;BME280;27247;48.020;16.720;2023-03-13T12:20:41;99375.06;;;12.28;54.52
41515;BME280;27247;48.020;16.720;2023-03-13T12:25:01;99365.19;;;12.28;55.00
41515;BME280;27247;48.020;16.720;2023-03-13T12:34:01;99370.75;;;12.27;53.66
41515;BME280;27247;48.020;16.720;2023-03-13T12:42:57;99353.94;;;12.46;53.14
41515;BME280;27247;48.020;16.720;2023-03-13T12:47:31;99340.78;;;12.51;54.13
41515;BME280;27247;48.020;16.720;2023-03-13T13:00:44;99285.34;;;12.58;54.48
41515;BME280;27247;48.020;16.720;2023-03-13T13:04:59;99281.06;;;12.70;53.89
41515;BME280;27247;48.020;16.720;2023-03-13T13:09:18;99293.03;;;12.74;53.65
41515;BME280;27247;48.020;16.720;2023-03-13T13:13:30;99286.66;;;12.89;54.47
41515;BME280;27247;48.020;16.720;2023-03-13T13:17:55;99274.28;;;12.94;53.91
41515;BME280;27247;48.020;16.720;2023-03-13T13:26:48;99278.63;;;13.15;53.35
41515;BME280;27247;48.020;16.720;2023-03-13T13:30:59;99270.78;;;13.14;53.70
41515;BME280;27247;48.020;16.720;2023-03-13T13:39:40;99254.94;;;13.25;53.45
41515;BME280;27247;48.020;16.720;2023-03-13T13:44:20;99255.94;;;13.37;53.59
41515;BME280;27247;48.020;16.720;2023-03-13T13:48:32;99249.53;;;13.45;53.77
41515;BME280;27247;48.020;16.720;2023-03-13T13:52:46;99234.25;;;13.52;54.04
41515;BME280;27247;48.020;16.720;2023-03-13T13:56:58;99230.75;;;13.58;53.34
41515;BME280;27247;48.020;16.720;2023-03-13T14:01:15;99230.94;;;13.70;53.87
41515;BME280;27247;48.020;16.720;2023-03-13T14:05:38;99226.78;;;13.81;53.18
41515;BME280;27247;48.020;16.720;2023-03-13T14:09:57;99204.19;;;13.95;52.33
41515;BME280;27247;48.020;16.720;2023-03-13T14:14:17;99211.19;;;14.02;51.93
41515;BME280;27247;48.020;16.720;2023-03-13T14:18:29;99198.41;;;13.98;52.21
41515;BME280;27247;48.020;16.720;2023-03-13T14:22:47;99189.53;;;13.97;52.28
41515;BME280;27247;48.020;16.720;2023-03-13T14:26:58;99186.00;;;13.97;52.40
41515;BME280;27247;48.020;16.720;2023-03-13T14:31:09;99174.22;;;13.98;51.98
41515;BME280;27247;48.020;16.720;2023-03-13T14:35:21;99161.66;;;13.92;52.37
41515;BME280;27247;48.020;16.720;2023-03-13T14:43:42;99140.56;;;13.95;52.13
41515;BME280;27247;48.020;16.720;2023-03-13T14:47:53;99130.84;;;13.94;51.72
41515;BME280;27247;48.020;16.720;2023-03-13T14:52:06;99135.59;;;13.99;51.80
41515;BME280;27247;48.020;16.720;2023-03-13T14:56:39;99121.75;;;13.95;51.92
41515;BME280;27247;48.020;16.720;2023-03-13T15:00:55;99113.28;;;13.98;52.19
41515;BME280;27247;48.020;16.720;2023-03-13T15:05:31;99114.13;;;13.92;52.33
41515;BME280;27247;48.020;16.720;2023-03-13T15:09:42;99096.09;;;13.99;52.69
41515;BME280;27247;48.020;16.720;2023-03-13T15:13:54;99087.84;;;14.01;53.43
41515;BME280;27247;48.020;16.720;2023-03-13T15:18:23;99078.94;;;14.00;53.71
41515;BME280;27247;48.020;16.720;2023-03-13T15:22:37;99077.31;;;13.99;54.62
41515;BME280;27247;48.020;16.720;2023-03-13T15:26:48;99073.97;;;14.04;54.64
41515;BME280;27247;48.020;16.720;2023-03-13T15:30:58;99069.84;;;14.01;55.18
41515;BME280;27247;48.020;16.720;2023-03-13T15:35:30;99074.75;;;14.11;54.84
41515;BME280;27247;48.020;16.720;2023-03-13T15:39:41;99078.25;;;14.12;54.85
41515;BME280;27247;48.020;16.720;2023-03-13T15:43:51;99079.50;;;14.09;55.20
41515;BME280;27247;48.020;16.720;2023-03-13T15:48:02;99073.28;;;14.15;55.35
41515;BME280;27247;48.020;16.720;2023-03-13T15:52:19;99087.16;;;14.12;55.64
41515;BME280;27247;48.020;16.720;2023-03-13T15:56:35;99071.69;;;14.07;55.67
41515;BME280;27247;48.020;16.720;2023-03-13T16:00:46;99079.69;;;14.14;55.52
41515;BME280;27247;48.020;16.720;2023-03-13T16:04:57;99079.03;;;14.19;55.63
41515;BME280;27247;48.020;16.720;2023-03-13T16:09:09;99075.19;;;14.08;55.69
41515;BME280;27247;48.020;16.720;2023-03-13T16:13:20;99067.56;;;14.05;56.02
41515;BME280;27247;48.020;16.720;2023-03-13T16:17:31;99063.44;;;14.02;56.06
41515;BME280;27247;48.020;16.720;2023-03-13T16:21:41;99063.47;;;13.96;56.31
41515;BME280;27247;48.020;16.720;2023-03-13T16:25:57;99070.94;;;13.94;56.04
41515;BME280;27247;48.020;16.720;2023-03-13T16:30:34;99056.25;;;13.96;56.43
41515;BME280;27247;48.020;16.720;2023-03-13T16:34:44;99050.69;;;13.91;56.21
41515;BME280;27247;48.020;16.720;2023-03-13T16:38:55;99059.84;;;13.84;56.59
41515;BME280;27247;48.020;16.720;2023-03-13T16:43:06;99055.13;;;13.79;57.09
41515;BME280;27247;48.020;16.720;2023-03-13T16:47:28;99052.25;;;13.74;57.34
41515;BME280;27247;48.020;16.720;2023-03-13T16:51:39;99047.09;;;13.72;57.23
41515;BME280;27247;48.020;16.720;2023-03-13T16:55:49;99037.16;;;13.80;57.91
41515;BME280;27247;48.020;16.720;2023-03-13T17:00:00;99032.84;;;13.72;56.49
41515;BME280;27247;48.020;16.720;2023-03-13T17:04:10;99038.25;;;13.65;56.11
41515;BME280;27247;48.020;16.720;2023-03-13T17:08:21;99039.75;;;13.55;56.36
41515;BME280;27247;48.020;16.720;2023-03-13T17:12:32;99033.72;;;13.66;56.19
41515;BME280;27247;48.020;16.720;2023-03-13T17:16:43;99051.03;;;13.70;55.88
41515;BME280;27247;48.020;16.720;2023-03-13T17:20:54;99044.88;;;13.63;56.37
41515;BME280;27247;48.020;16.720;2023-03-13T17:25:05;99037.47;;;13.58;56.77
41515;BME280;27247;48.020;16.720;2023-03-13T17:29:16;99018.28;;;13.55;56.53
41515;BME280;27247;48.020;16.720;2023-03-13T17:33:28;99016.47;;;13.42;56.63
41515;BME280;27247;48.020;16.720;2023-03-13T17:37:38;99005.00;;;13.22;56.75
41515;BME280;27247;48.020;16.720;2023-03-13T17:41:49;98988.06;;;13.21;57.05
41515;BME280;27247;48.020;16.720;2023-03-13T17:46:00;98984.97;;;13.24;56.47
41515;BME280;27247;48.020;16.720;2023-03-13T17:50:17;98981.69;;;13.09;57.18
41515;BME280;27247;48.020;16.720;2023-03-13T17:54:28;98977.81;;;13.05;57.52
41515;BME280;27247;48.020;16.720;2023-03-13T17:58:38;98961.38;;;12.88;58.15
41515;BME280;27247;48.020;16.720;2023-03-13T18:02:51;98938.72;;;12.77;58.41
41515;BME280;27247;48.020;16.720;2023-03-13T18:07:01;98936.22;;;12.83;57.89
41515;BME280;27247;48.020;16.720;2023-03-13T18:11:14;98909.69;;;12.68;58.90
41515;BME280;27247;48.020;16.720;2023-03-13T18:15:27;98907.22;;;12.66;60.29
41515;BME280;27247;48.020;16.720;2023-03-13T18:19:37;98900.22;;;12.59;60.50
41515;BME280;27247;48.020;16.720;2023-03-13T18:23:48;98877.38;;;12.50;61.19
41515;BME280;27247;48.020;16.720;2023-03-13T18:27:59;98868.94;;;12.33;61.87
41515;BME280;27247;48.020;16.720;2023-03-13T18:32:12;98857.03;;;12.22;62.07
41515;BME280;27247;48.020;16.720;2023-03-13T18:36:24;98862.63;;;12.07;62.28
41515;BME280;27247;48.020;16.720;2023-03-13T18:40:35;98859.75;;;12.02;62.58
41515;BME280;27247;48.020;16.720;2023-03-13T18:44:46;98867.19;;;11.94;62.29
41515;BME280;27247;48.020;16.720;2023-03-13T18:48:57;98858.34;;;11.80;62.59
41515;BME280;27247;48.020;16.720;2023-03-13T18:53:08;98873.97;;;11.76;62.68
41515;BME280;27247;48.020;16.720;2023-03-13T18:57:19;98892.69;;;11.57;63.15
41515;BME280;27247;48.020;16.720;2023-03-13T19:01:30;98903.41;;;11.50;63.41
41515;BME280;27247;48.020;16.720;2023-03-13T19:05:41;98913.47;;;11.55;64.17
41515;BME280;27247;48.020;16.720;2023-03-13T19:09:53;98896.34;;;11.42;64.32
41515;BME280;27247;48.020;16.720;2023-03-13T19:14:04;98885.63;;;11.16;64.49
41515;BME280;27247;48.020;16.720;2023-03-13T19:18:16;98873.28;;;11.15;65.08
41515;BME280;27247;48.020;16.720;2023-03-13T19:22:26;98855.16;;;11.10;64.63
41515;BME280;27247;48.020;16.720;2023-03-13T19:26:48;98841.16;;;10.95;65.17
41515;BME280;27247;48.020;16.720;2023-03-13T19:31:01;98845.28;;;10.98;65.21
41515;BME280;27247;48.020;16.720;2023-03-13T19:35:11;98844.63;;;10.82;65.60
41515;BME280;27247;48.020;16.720;2023-03-13T19:39:24;98841.53;;;10.85;65.89
41515;BME280;27247;48.020;16.720;2023-03-13T19:43:36;98832.66;;;10.72;66.03
41515;BME280;27247;48.020;16.720;2023-03-13T19:47:47;98825.88;;;10.69;66.30
41515;BME280;27247;48.020;16.720;2023-03-13T19:51:58;98812.72;;;10.61;66.76
41515;BME280;27247;48.020;16.720;2023-03-13T19:56:21;98798.13;;;10.64;66.63
41515;BME280;27247;48.020;16.720;2023-03-13T20:00:33;98782.88;;;10.51;67.29
41515;BME280;27247;48.020;16.720;2023-03-13T20:04:43;98775.25;;;10.41;67.44
41515;BME280;27247;48.020;16.720;2023-03-13T20:08:57;98779.50;;;10.29;68.04
41515;BME280;27247;48.020;16.720;2023-03-13T20:13:08;98781.34;;;10.29;68.18
41515;BME280;27247;48.020;16.720;2023-03-13T20:17:19;98770.53;;;10.09;68.86
41515;BME280;27247;48.020;16.720;2023-03-13T20:21:32;98760.47;;;10.04;68.99
41515;BME280;27247;48.020;16.720;2023-03-13T20:25:43;98752.81;;;9.95;69.35
41515;BME280;27247;48.020;16.720;2023-03-13T20:29:54;98740.88;;;9.84;69.71
41515;BME280;27247;48.020;16.720;2023-03-13T20:34:05;98735.97;;;9.87;69.91
41515;BME280;27247;48.020;16.720;2023-03-13T20:38:16;98730.41;;;9.82;70.01
41515;BME280;27247;48.020;16.720;2023-03-13T20:42:27;98716.00;;;9.77;70.00
41515;BME280;27247;48.020;16.720;2023-03-13T20:46:37;98706.41;;;9.89;69.88
41515;BME280;27247;48.020;16.720;2023-03-13T20:50:49;98701.97;;;9.62;70.81
41515;BME280;27247;48.020;16.720;2023-03-13T20:55:01;98692.56;;;9.66;70.60
41515;BME280;27247;48.020;16.720;2023-03-13T20:59:12;98692.72;;;9.57;71.23
41515;BME280;27247;48.020;16.720;2023-03-13T21:03:22;98679.97;;;9.53;71.36
41515;BME280;27247;48.020;16.720;2023-03-13T21:07:33;98674.22;;;9.49;71.71
41515;BME280;27247;48.020;16.720;2023-03-13T21:11:44;98678.25;;;9.39;71.90
41515;BME280;27247;48.020;16.720;2023-03-13T21:16:01;98669.16;;;9.33;72.30
41515;BME280;27247;48.020;16.720;2023-03-13T21:20:12;98669.63;;;9.37;72.30
41515;BME280;27247;48.020;16.720;2023-03-13T21:24:22;98668.53;;;9.31;72.19
41515;BME280;27247;48.020;16.720;2023-03-13T21:28:33;98672.34;;;9.43;71.89
41515;BME280;27247;48.020;16.720;2023-03-13T21:32:44;98654.13;;;9.53;71.60
41515;BME280;27247;48.020;16.720;2023-03-13T21:36:55;98637.34;;;9.59;71.29
41515;BME280;27247;48.020;16.720;2023-03-13T21:41:11;98640.00;;;9.59;71.19
41515;BME280;27247;48.020;16.720;2023-03-13T21:45:22;98616.34;;;9.43;71.71
41515;BME280;27247;48.020;16.720;2023-03-13T21:49:32;98608.56;;;9.48;71.89
41515;BME280;27247;48.020;16.720;2023-03-13T21:53:43;98600.97;;;9.45;72.11
41515;BME280;27247;48.020;16.720;2023-03-13T21:57:53;98585.97;;;9.38;72.48
41515;BME280;27247;48.020;16.720;2023-03-13T22:02:04;98588.84;;;9.43;72.18
41515;BME280;27247;48.020;16.720;2023-03-13T22:06:17;98583.84;;;9.26;72.81
41515;BME280;27247;48.020;16.720;2023-03-13T22:10:28;98590.16;;;9.19;73.19
41515;BME280;27247;48.020;16.720;2023-03-13T22:14:38;98597.25;;;9.05;74.15
41515;BME280;27247;48.020;16.720;2023-03-13T22:18:48;98581.91;;;9.07;74.44
41515;BME280;27247;48.020;16.720;2023-03-13T22:22:59;98574.31;;;9.11;73.96
41515;BME280;27247;48.020;16.720;2023-03-13T22:27:09;98574.09;;;9.06;74.27
41515;BME280;27247;48.020;16.720;2023-03-13T22:31:20;98542.28;;;8.98;74.83
41515;BME280;27247;48.020;16.720;2023-03-13T22:35:30;98537.16;;;8.96;75.17
41515;BME280;27247;48.020;16.720;2023-03-13T22:39:40;98532.09;;;9.08;74.65
41515;BME280;27247;48.020;16.720;2023-03-13T22:43:51;98539.66;;;9.04;74.82
41515;BME280;27247;48.020;16.720;2023-03-13T22:48:01;98497.84;;;9.05;75.01
41515;BME280;27247;48.020;16.720;2023-03-13T22:52:15;98475.09;;;9.02;75.49
41515;BME280;27247;48.020;16.720;2023-03-13T22:56:25;98480.81;;;8.99;75.57
41515;BME280;27247;48.020;16.720;2023-03-13T23:00:35;98476.53;;;9.05;75.32
41515;BME280;27247;48.020;16.720;2023-03-13T23:04:46;98462.38;;;9.04;75.62
41515;BME280;27247;48.020;16.720;2023-03-13T23:08:56;98440.03;;;9.05;75.81
41515;BME280;27247;48.020;16.720;2023-03-13T23:13:07;98407.66;;;9.02;75.87
41515;BME280;27247;48.020;16.720;2023-03-13T23:17:17;98391.88;;;9.00;76.17